createdAt,value
2023-04-29T00:01:08.132Z,1.38
2023-04-29T00:03:56.082Z,1.46
2023-04-29T00:06:43.520Z,1.45
2023-04-29T00:09:30.636Z,1.44
2023-04-29T00:12:18.161Z,1.41
2023-04-29T00:15:05.262Z,1.38
2023-04-29T00:17:53.106Z,1.33
2023-04-29T00:20:40.383Z,1.34
2023-04-29T00:23:27.314Z,1.31
2023-04-29T00:26:14.273Z,1.29
2023-04-29T00:29:05.835Z,1.29
2023-04-29T00:31:52.931Z,1.23
2023-04-29T00:34:40.193Z,1.28
2023-04-29T00:37:27.351Z,1.27
2023-04-29T00:40:14.295Z,1.27
2023-04-29T00:43:01.971Z,1.05
2023-04-29T00:45:48.933Z,1.21
2023-04-29T00:48:36.060Z,1.21
2023-04-29T00:51:23.218Z,1.16
2023-04-29T00:54:10.574Z,0.83
2023-04-29T00:56:59.499Z,0.93
2023-04-29T00:59:46.994Z,1.11
2023-04-29T01:02:34.142Z,0.61
2023-04-29T01:05:21.302Z,1.12
2023-04-29T01:08:20.302Z,1.12
2023-04-29T01:11:18.230Z,1.07
2023-04-29T01:14:22.884Z,1.04
2023-04-29T01:17:19.799Z,0.98
2023-04-29T01:20:15.668Z,0.88
2023-04-29T01:23:03.113Z,0.94
2023-04-29T01:25:50.504Z,0.97
2023-04-29T01:28:47.456Z,0.98
2023-04-29T01:32:24.566Z,0.98
2023-04-29T01:35:27.489Z,0.98
2023-04-29T01:38:29.854Z,0.98
2023-04-29T01:41:37.888Z,0.95
2023-04-29T01:44:44.629Z,0.97
2023-04-29T01:47:34.599Z,0.96
2023-04-29T01:50:21.716Z,0.97
2023-04-29T01:53:09.343Z,1.02
2023-04-29T01:55:56.485Z,0.94
2023-04-29T01:58:47.969Z,0.65
2023-04-29T02:01:58.509Z,0.78
2023-04-29T02:04:46.208Z,1.13
2023-04-29T02:07:33.488Z,1.17
2023-04-29T02:10:20.835Z,1.15
2023-04-29T02:13:11.194Z,1.15
2023-04-29T02:16:18.190Z,1.16
2023-04-29T02:19:25.575Z,1.14
2023-04-29T02:22:15.446Z,1.19
2023-04-29T02:25:03.137Z,1.14
2023-04-29T02:27:52.082Z,1.23
2023-04-29T02:30:39.337Z,0.94
2023-04-29T02:33:26.334Z,1.11
2023-04-29T02:36:13.526Z,1.28
2023-04-29T02:39:00.703Z,1.20
2023-04-29T02:41:47.664Z,1.29
2023-04-29T02:44:34.918Z,1.29
2023-04-29T02:47:22.076Z,1.20
2023-04-29T02:50:09.602Z,0.99
2023-04-29T02:52:56.979Z,1.32
2023-04-29T02:55:44.104Z,1.14
2023-04-29T02:58:31.297Z,1.35
2023-04-29T03:01:18.358Z,1.37
2023-04-29T03:04:05.954Z,1.18
2023-04-29T03:06:53.189Z,1.42
2023-04-29T03:09:40.727Z,1.40
2023-04-29T03:12:27.784Z,1.34
2023-04-29T03:15:15.145Z,1.36
2023-04-29T03:18:02.636Z,1.35
2023-04-29T03:20:50.043Z,1.36
2023-04-29T03:23:36.927Z,0.94
2023-04-29T03:26:25.453Z,1.37
2023-04-29T03:29:12.605Z,1.39
2023-04-29T03:31:59.900Z,1.40
2023-04-29T03:34:46.839Z,1.41
2023-04-29T03:38:06.137Z,1.42
2023-04-29T03:40:54.727Z,1.46
2023-04-29T03:43:42.428Z,1.19
2023-04-29T03:46:32.260Z,1.50
2023-04-29T03:49:21.445Z,1.41
2023-04-29T03:52:09.322Z,1.56
2023-04-29T03:54:56.468Z,1.58
2023-04-29T03:57:43.679Z,1.54
2023-04-29T04:00:32.470Z,1.62
2023-04-29T04:03:23.134Z,1.59
2023-04-29T04:06:10.951Z,1.65
2023-04-29T04:08:58.459Z,1.70
2023-04-29T04:11:48.775Z,1.71
2023-04-29T04:14:36.006Z,1.74
2023-04-29T04:17:23.093Z,1.68
2023-04-29T04:20:10.808Z,1.75
2023-04-29T04:22:58.284Z,1.78
2023-04-29T04:25:49.339Z,1.38
2023-04-29T04:29:08.974Z,1.79
2023-04-29T04:32:11.082Z,1.75
2023-04-29T04:35:02.129Z,1.80
2023-04-29T04:37:49.188Z,1.71
2023-04-29T04:40:36.204Z,1.83
2023-04-29T04:43:58.734Z,1.84
2023-04-29T04:46:55.658Z,1.85
2023-04-29T04:49:59.531Z,1.85
2023-04-29T04:52:47.364Z,1.84
2023-04-29T04:55:54.721Z,1.80
2023-04-29T04:58:41.842Z,1.83
2023-04-29T05:01:29.888Z,1.82
2023-04-29T05:04:17.436Z,1.83
2023-04-29T05:07:04.694Z,1.82
2023-04-29T05:10:02.506Z,1.84
2023-04-29T05:12:51.654Z,1.85
2023-04-29T05:15:39.874Z,1.87
2023-04-29T05:18:28.623Z,1.69
2023-04-29T05:21:17.570Z,1.92
2023-04-29T05:24:05.293Z,2.00
2023-04-29T05:26:52.793Z,2.05
2023-04-29T05:29:39.820Z,1.92
2023-04-29T05:32:27.221Z,2.18
2023-04-29T05:35:14.205Z,2.23
2023-04-29T05:38:01.666Z,2.30
2023-04-29T05:40:56.431Z,2.36
2023-04-29T05:43:52.634Z,2.40
2023-04-29T05:46:39.665Z,2.42
2023-04-29T05:49:26.776Z,2.51
2023-04-29T05:52:13.680Z,2.51
2023-04-29T05:55:05.758Z,2.60
2023-04-29T05:57:52.837Z,2.65
2023-04-29T06:00:40.182Z,2.70
2023-04-29T06:03:33.712Z,2.57
2023-04-29T06:06:43.854Z,2.75
2023-04-29T06:09:39.173Z,2.80
2023-04-29T06:12:26.438Z,2.76
2023-04-29T06:15:13.722Z,2.85
2023-04-29T06:18:01.308Z,2.86
2023-04-29T06:20:48.307Z,2.87
2023-04-29T06:23:35.784Z,2.86
2023-04-29T06:26:28.186Z,2.88
2023-04-29T06:29:15.723Z,2.92
2023-04-29T06:32:02.746Z,2.87
2023-04-29T06:34:50.609Z,2.91
2023-04-29T06:37:52.286Z,2.96
2023-04-29T06:40:57.824Z,3.03
2023-04-29T06:44:13.676Z,2.96
2023-04-29T06:47:22.855Z,2.94
2023-04-29T06:50:36.549Z,3.17
2023-04-29T06:53:27.112Z,2.75
2023-04-29T06:56:16.725Z,3.28
2023-04-29T06:59:04.744Z,3.33
2023-04-29T07:01:51.981Z,2.89
2023-04-29T07:04:40.229Z,3.44
2023-04-29T07:07:27.390Z,3.48
2023-04-29T07:10:14.443Z,3.58
2023-04-29T07:13:01.395Z,3.65
2023-04-29T07:15:48.917Z,3.71
2023-04-29T07:18:36.154Z,3.71
2023-04-29T07:21:23.244Z,3.85
2023-04-29T07:24:10.169Z,3.92
2023-04-29T07:26:57.151Z,3.98
2023-04-29T07:29:44.302Z,4.06
2023-04-29T07:32:31.623Z,4.13
2023-04-29T07:35:21.744Z,4.14
2023-04-29T07:38:08.904Z,4.24
2023-04-29T07:40:56.067Z,4.30
2023-04-29T07:43:43.823Z,4.37
2023-04-29T07:46:30.791Z,4.34
2023-04-29T07:49:18.590Z,4.50
2023-04-29T07:52:05.576Z,4.60
2023-04-29T07:54:53.129Z,4.69
2023-04-29T07:57:40.375Z,4.81
2023-04-29T08:00:08.551Z,4.91
2023-04-29T08:02:42.708Z,5.01
2023-04-29T08:05:12.603Z,5.12
2023-04-29T08:07:40.026Z,5.22
2023-04-29T08:10:07.787Z,5.28
2023-04-29T08:12:38.221Z,5.38
2023-04-29T08:15:26.106Z,5.52
2023-04-29T08:18:14.259Z,5.63
2023-04-29T08:21:01.595Z,5.69
2023-04-29T08:23:48.558Z,5.86
2023-04-29T08:26:35.613Z,5.95
2023-04-29T08:29:22.528Z,6.01
2023-04-29T08:32:09.664Z,6.07
2023-04-29T08:34:56.764Z,6.14
2023-04-29T08:37:43.646Z,6.22
2023-04-29T08:40:31.097Z,6.24
2023-04-29T08:43:19.417Z,6.27
2023-04-29T08:46:09.146Z,6.39
2023-04-29T08:48:57.685Z,6.37
2023-04-29T08:51:44.610Z,6.49
2023-04-29T08:54:31.693Z,6.57
2023-04-29T08:57:19.991Z,6.67
2023-04-29T09:00:07.428Z,6.69
2023-04-29T09:03:01.889Z,6.74
2023-04-29T09:05:49.747Z,6.80
2023-04-29T09:08:37.611Z,6.86
2023-04-29T09:11:28.434Z,6.93
2023-04-29T09:14:22.982Z,6.57
2023-04-29T09:17:10.103Z,7.00
2023-04-29T09:19:57.509Z,7.02
2023-04-29T09:22:44.673Z,7.03
2023-04-29T09:25:35.104Z,7.07
2023-04-29T09:28:35.586Z,7.06
2023-04-29T09:31:23.263Z,6.87
2023-04-29T09:34:12.907Z,7.21
2023-04-29T09:37:02.381Z,7.29
2023-04-29T09:39:58.835Z,7.39
2023-04-29T09:42:46.296Z,7.43
2023-04-29T09:45:33.238Z,7.54
2023-04-29T09:48:24.119Z,7.62
2023-04-29T09:51:21.909Z,7.76
2023-04-29T09:54:09.191Z,7.87
2023-04-29T09:57:10.162Z,7.96
2023-04-29T09:59:59.374Z,7.89
2023-04-29T10:02:47.922Z,8.08
2023-04-29T10:05:35.965Z,8.13
2023-04-29T10:08:23.250Z,8.18
2023-04-29T10:11:11.178Z,8.26
2023-04-29T10:14:02.194Z,8.31
2023-04-29T10:16:51.526Z,8.52
2023-04-29T10:19:52.449Z,8.69
2023-04-29T10:23:12.582Z,8.82
2023-04-29T10:26:01.914Z,8.94
2023-04-29T10:28:52.069Z,9.01
2023-04-29T10:31:40.223Z,8.99
2023-04-29T10:34:27.802Z,9.12
2023-04-29T10:37:15.009Z,9.11
2023-04-29T10:40:21.846Z,9.01
2023-04-29T10:43:10.152Z,9.03
2023-04-29T10:45:57.568Z,9.05
2023-04-29T10:48:44.759Z,9.00
2023-04-29T10:51:31.964Z,9.01
2023-04-29T10:54:19.686Z,9.03
2023-04-29T10:57:14.342Z,9.10
2023-04-29T11:00:01.237Z,9.22
2023-04-29T11:02:48.420Z,9.34
2023-04-29T11:05:35.450Z,9.51
2023-04-29T11:08:32.826Z,9.76
2023-04-29T11:11:22.996Z,9.91
2023-04-29T11:14:10.539Z,10.06
2023-04-29T11:16:58.494Z,10.15
2023-04-29T11:19:53.084Z,10.24
2023-04-29T11:22:43.288Z,10.37
2023-04-29T11:25:30.271Z,10.48
2023-04-29T11:28:17.927Z,10.50
2023-04-29T11:31:06.383Z,10.50
2023-04-29T11:33:53.430Z,10.62
2023-04-29T11:36:40.629Z,10.69
2023-04-29T11:39:28.268Z,10.81
2023-04-29T11:42:27.960Z,10.80
2023-04-29T11:45:15.754Z,10.73
2023-04-29T11:48:07.274Z,11.00
2023-04-29T11:50:54.239Z,11.28
2023-04-29T11:53:42.288Z,11.37
2023-04-29T11:56:30.377Z,11.46
2023-04-29T11:59:18.212Z,11.57
2023-04-29T12:02:05.151Z,11.52
2023-04-29T12:04:52.369Z,11.71
2023-04-29T12:07:39.637Z,11.79
2023-04-29T12:10:33.303Z,11.90
2023-04-29T12:13:20.598Z,11.99
2023-04-29T12:16:09.832Z,12.09
2023-04-29T12:18:57.108Z,12.17
2023-04-29T12:21:44.175Z,12.22
2023-04-29T12:24:33.227Z,12.32
2023-04-29T12:27:20.826Z,12.38
2023-04-29T12:30:07.815Z,12.41
2023-04-29T12:32:54.797Z,12.42
2023-04-29T12:35:41.924Z,12.41
2023-04-29T12:38:29.927Z,12.33
2023-04-29T12:41:19.688Z,12.21
2023-04-29T12:44:06.754Z,12.13
2023-04-29T12:47:01.695Z,11.99
2023-04-29T12:49:48.761Z,11.81
2023-04-29T12:52:36.949Z,11.62
2023-04-29T12:55:24.310Z,11.44
2023-04-29T12:58:11.379Z,11.29
2023-04-29T13:00:38.593Z,11.17
2023-04-29T13:03:25.749Z,11.16
2023-04-29T13:06:13.081Z,11.15
2023-04-29T13:09:00.174Z,11.08
2023-04-29T13:11:47.262Z,11.12
2023-04-29T13:14:34.257Z,11.10
2023-04-29T13:17:21.908Z,11.19
2023-04-29T13:20:11.451Z,11.25
2023-04-29T13:23:03.729Z,11.27
2023-04-29T13:25:53.260Z,11.24
2023-04-29T13:28:42.554Z,11.15
2023-04-29T13:31:30.223Z,11.20
2023-04-29T13:34:18.747Z,11.16
2023-04-29T13:37:07.628Z,11.02
2023-04-29T13:39:57.621Z,11.10
2023-04-29T13:42:50.115Z,11.06
2023-04-29T13:45:43.789Z,11.03
2023-04-29T13:54:48.157Z,10.89
2023-04-29T14:00:44.282Z,10.33
2023-04-29T14:03:23.239Z,10.78
2023-04-29T14:06:10.277Z,10.70
2023-04-29T14:08:57.312Z,10.57
2023-04-29T14:11:44.496Z,10.27
2023-04-29T14:14:31.712Z,10.41
2023-04-29T14:17:18.753Z,10.26
2023-04-29T14:20:06.011Z,10.29
2023-04-29T14:22:53.084Z,10.21
2023-04-29T14:25:40.063Z,10.18
2023-04-29T14:28:26.994Z,10.12
2023-04-29T14:31:13.989Z,10.06
2023-04-29T14:34:00.947Z,9.93
2023-04-29T14:36:47.992Z,9.81
2023-04-29T14:39:34.888Z,9.73
2023-04-29T14:42:21.724Z,9.70
2023-04-29T14:45:08.846Z,9.68
2023-04-29T14:47:55.920Z,9.65
2023-04-29T14:50:43.048Z,9.66
2023-04-29T14:53:30.052Z,9.66
2023-04-29T14:56:16.999Z,9.66
2023-04-29T14:59:04.248Z,9.69
2023-04-29T15:01:51.285Z,9.70
2023-04-29T15:04:38.282Z,9.70
2023-04-29T15:07:25.226Z,9.71
2023-04-29T15:10:12.367Z,9.77
2023-04-29T15:12:59.378Z,9.84
2023-04-29T15:15:46.677Z,9.84
2023-04-29T15:18:33.557Z,9.93
2023-04-29T15:21:20.642Z,9.73
2023-04-29T15:24:07.957Z,9.95
2023-04-29T15:26:55.021Z,10.05
2023-04-29T15:29:41.994Z,10.14
2023-04-29T15:32:28.972Z,10.18
2023-04-29T15:35:16.086Z,10.22
2023-04-29T15:37:59.527Z,10.31
2023-04-29T15:40:46.478Z,10.34
2023-04-29T15:43:33.661Z,10.39
2023-04-29T15:46:20.695Z,10.37
2023-04-29T15:49:08.013Z,10.36
2023-04-29T15:51:54.985Z,10.36
2023-04-29T15:54:41.964Z,10.30
2023-04-29T15:57:29.062Z,10.44
2023-04-29T16:00:16.462Z,10.49
2023-04-29T16:03:03.525Z,10.51
2023-04-29T16:05:50.538Z,10.59
2023-04-29T16:08:37.464Z,10.66
2023-04-29T16:11:24.350Z,10.34
2023-04-29T16:14:11.383Z,10.79
2023-04-29T16:16:58.715Z,10.80
2023-04-29T16:19:45.731Z,10.85
2023-04-29T16:22:32.745Z,10.83
2023-04-29T16:25:19.820Z,10.74
2023-04-29T16:28:07.226Z,10.60
2023-04-29T16:30:54.922Z,10.54
2023-04-29T16:33:42.153Z,10.41
2023-04-29T16:36:29.218Z,10.36
2023-04-29T16:39:16.298Z,10.25
2023-04-29T16:42:03.264Z,10.15
2023-04-29T16:44:50.282Z,10.14
2023-04-29T16:47:37.393Z,10.10
2023-04-29T16:50:24.759Z,10.07
2023-04-29T16:53:11.790Z,9.99
2023-04-29T16:55:58.865Z,9.80
2023-04-29T16:58:45.953Z,9.74
2023-04-29T17:01:33.127Z,9.55
2023-04-29T17:04:20.193Z,9.59
2023-04-29T17:07:07.358Z,9.50
2023-04-29T17:09:54.697Z,9.41
2023-04-29T17:12:41.939Z,9.32
2023-04-29T17:15:29.198Z,9.23
2023-04-29T17:18:16.133Z,9.15
2023-04-29T17:21:04.113Z,9.06
2023-04-29T17:23:51.217Z,8.87
2023-04-29T17:26:38.204Z,8.58
2023-04-29T17:29:25.576Z,8.70
2023-04-29T17:32:15.175Z,8.65
2023-04-29T17:35:02.306Z,8.53
2023-04-29T17:37:49.265Z,8.35
2023-04-29T17:40:36.416Z,8.19
2023-04-29T17:43:23.312Z,8.07
2023-04-29T17:46:10.614Z,7.63
2023-04-29T17:48:57.515Z,7.92
2023-04-29T17:51:44.596Z,7.85
2023-04-29T17:54:31.464Z,7.79
2023-04-29T17:57:18.411Z,7.62
2023-04-29T18:00:05.258Z,7.67
2023-04-29T18:02:52.428Z,7.32
2023-04-29T18:05:40.373Z,7.54
2023-04-29T18:08:27.291Z,7.43
2023-04-29T18:11:14.286Z,7.38
2023-04-29T18:14:01.560Z,7.29
2023-04-29T18:16:48.526Z,7.19
2023-04-29T18:19:35.560Z,7.12
2023-04-29T18:22:22.501Z,7.05
2023-04-29T18:25:09.551Z,6.91
2023-04-29T18:28:07.539Z,6.90
2023-04-29T18:31:05.475Z,6.81
2023-04-29T18:33:52.442Z,6.74
2023-04-29T18:36:39.783Z,6.66
2023-04-29T18:39:26.841Z,6.60
2023-04-29T18:42:13.944Z,6.52
2023-04-29T18:45:00.854Z,6.47
2023-04-29T18:47:47.961Z,6.39
2023-04-29T18:50:35.023Z,6.35
2023-04-29T18:53:22.074Z,6.28
2023-04-29T18:56:09.113Z,6.16
2023-04-29T18:58:56.186Z,6.15
2023-04-29T19:01:43.353Z,6.10
2023-04-29T19:04:30.464Z,6.04
2023-04-29T19:07:18.078Z,6.00
2023-04-29T19:10:05.120Z,5.96
2023-04-29T19:12:52.255Z,5.94
2023-04-29T19:15:39.202Z,5.90
2023-04-29T19:18:26.248Z,5.86
2023-04-29T19:21:13.542Z,5.80
2023-04-29T19:24:01.601Z,5.76
2023-04-29T19:26:48.802Z,5.71
2023-04-29T19:29:36.367Z,5.66
2023-04-29T19:32:23.449Z,5.60
2023-04-29T19:35:10.898Z,5.56
2023-04-29T19:37:58.223Z,5.50
2023-04-29T19:40:45.289Z,5.39
2023-04-29T19:43:32.305Z,5.42
2023-04-29T19:46:19.356Z,5.37
2023-04-29T19:49:06.438Z,5.27
2023-04-29T19:51:53.381Z,5.31
2023-04-29T19:54:40.337Z,5.27
2023-04-29T19:57:27.236Z,5.12
2023-04-29T20:00:14.245Z,5.19
2023-04-29T20:03:01.817Z,4.95
2023-04-29T20:05:49.242Z,5.01
2023-04-29T20:08:36.251Z,5.02
2023-04-29T20:11:23.408Z,4.97
2023-04-29T20:14:10.468Z,4.94
2023-04-29T20:17:00.215Z,4.90
2023-04-29T20:19:47.593Z,4.86
2023-04-29T20:22:34.546Z,4.82
2023-04-29T20:25:21.792Z,4.75
2023-04-29T20:28:08.878Z,4.68
2023-04-29T20:30:56.323Z,4.74
2023-04-29T20:33:43.271Z,4.70
2023-04-29T20:36:30.396Z,4.68
2023-04-29T20:39:17.405Z,4.64
2023-04-29T20:42:04.604Z,4.61
2023-04-29T20:44:51.670Z,4.54
2023-04-29T20:47:38.775Z,4.54
2023-04-29T20:50:26.581Z,4.50
2023-04-29T20:53:13.609Z,4.48
2023-04-29T20:56:00.700Z,4.44
2023-04-29T20:58:47.669Z,4.41
2023-04-29T21:01:35.627Z,4.34
2023-04-29T21:04:25.542Z,4.33
2023-04-29T21:07:12.622Z,4.29
2023-04-29T21:09:59.737Z,4.27
2023-04-29T21:12:46.732Z,4.23
2023-04-29T21:15:34.125Z,3.84
2023-04-29T21:18:21.178Z,4.15
2023-04-29T21:21:08.202Z,4.10
2023-04-29T21:23:55.235Z,3.88
2023-04-29T21:26:42.314Z,4.01
2023-04-29T21:29:29.624Z,3.97
2023-04-29T21:32:16.699Z,3.92
2023-04-29T21:35:03.612Z,3.87
2023-04-29T21:37:50.779Z,3.84
2023-04-29T21:40:37.914Z,3.76
2023-04-29T21:43:25.120Z,3.76
2023-04-29T21:46:13.495Z,3.49
2023-04-29T21:49:00.482Z,3.70
2023-04-29T21:51:49.244Z,3.28
2023-04-29T21:54:36.319Z,3.66
2023-04-29T21:57:35.680Z,3.63
2023-04-29T22:00:31.036Z,3.63
2023-04-29T22:03:18.202Z,3.62
2023-04-29T22:06:05.433Z,3.59
2023-04-29T22:08:52.503Z,3.56
2023-04-29T22:11:39.559Z,3.56
2023-04-29T22:14:26.633Z,3.55
2023-04-29T22:17:13.638Z,3.52
2023-04-29T22:20:00.850Z,3.51
2023-04-29T22:22:47.828Z,3.51
2023-04-29T22:25:34.934Z,3.47
2023-04-29T22:28:22.060Z,3.43
2023-04-29T22:31:09.191Z,3.37
2023-04-29T22:33:56.376Z,3.40
2023-04-29T22:36:43.510Z,3.40
2023-04-29T22:39:30.447Z,3.39
2023-04-29T22:42:17.435Z,3.35
2023-04-29T22:45:04.430Z,3.34
2023-04-29T22:47:51.415Z,3.33
2023-04-29T22:50:38.731Z,3.20
2023-04-29T22:53:25.769Z,3.13
2023-04-29T22:56:14.344Z,3.27
2023-04-29T22:59:01.359Z,3.25
2023-04-29T23:01:48.588Z,3.17
2023-04-29T23:04:35.735Z,3.20
2023-04-29T23:07:22.881Z,3.19
2023-04-29T23:10:11.045Z,3.18
2023-04-29T23:12:58.078Z,3.10
2023-04-29T23:15:48.870Z,2.71
2023-04-29T23:18:35.926Z,3.16
2023-04-29T23:21:23.070Z,3.13
2023-04-29T23:24:10.015Z,3.12
2023-04-29T23:26:57.306Z,3.09
2023-04-29T23:29:44.388Z,3.03
2023-04-29T23:32:31.736Z,3.08
2023-04-29T23:35:18.899Z,3.07
2023-04-29T23:38:05.926Z,3.07
2023-04-29T23:40:53.145Z,3.03
2023-04-29T23:43:40.338Z,3.07
2023-04-29T23:46:27.471Z,3.04
2023-04-29T23:49:14.768Z,3.09
2023-04-29T23:52:01.918Z,3.08
2023-04-29T23:54:48.914Z,3.05
2023-04-29T23:57:36.065Z,3.07
